Time;durP1;ratioP1;P1;durP2;ratioP2;P2;SDS_P1;SDS_P2;PMS_P1;PMS_P2;Temp;Humidity;BMP_temperature;BMP_pressure;BME280_temperature;BME280_humidity;BME280_pressure;Samples;Min_cycle;Max_cycle;Signal;HPM_P1;HPM_P2
2021/10/04 06:43:08;;;;;;;;;;;;;;;;;;;;;
2021/10/04 08:59:46;;;;;;;7.83;2.70;;;15.10;74.70;;;;;;5976353;24;21102;-84
2021/10/04 09:02:27;;;;;;;6.30;2.93;;;15.50;71.80;;;;;;6033321;23;20462;-85
2021/10/04 09:05:43;;;;;;;8.50;3.10;;;15.60;67.20;;;;;;6065634;23;20397;-87
2021/10/04 09:17:39;;;;;;;7.47;2.60;;;16.40;61.20;;;;;;6122885;23;20408;-83
2021/10/04 09:24:02;;;;;;;9.17;2.70;;;17.00;59.10;;;;;;6171569;23;20416;-89
2021/10/04 09:26:58;;;;;;;7.60;4.07;;;17.00;55.70;;;;;;6172400;23;20423;-88
2021/10/04 09:30:06;;;;;;;6.47;2.73;;;16.90;56.80;;;;;;6186084;23;20895;-87
2021/10/04 09:33:07;;;;;;;9.23;3.20;;;16.70;55.40;;;;;;6195309;23;20430;-90
2021/10/04 09:35:51;;;;;;;5.57;1.97;;;17.10;55.10;;;;;;6134572;23;20169;-88
2021/10/04 09:38:36;;;;;;;8.90;2.90;;;17.40;50.80;;;;;;6144063;23;20426;-90
2021/10/04 09:41:10;;;;;;;7.73;2.73;;;17.40;50.80;;;;;;6186947;23;20471;-88
2021/10/04 09:44:08;;;;;;;5.63;3.20;;;17.50;50.90;;;;;;6248058;23;20767;-89
2021/10/04 09:46:50;;;;;;;8.07;3.00;;;17.70;47.00;;;;;;6257150;23;20440;-86
2021/10/04 09:50:16;;;;;;;5.83;2.60;;;17.60;47.10;;;;;;6257680;23;20453;-85
2021/10/04 09:56:40;;;;;;;;;;;;;;;;;;;;;
2021/10/04 09:59:49;;;;;;;6.17;2.53;;;18.10;43.80;;;;;;6162669;23;20448;-87
2021/10/04 10:02:37;;;;;;;14.30;2.70;;;17.80;48.80;;;;;;6145546;23;20413;-86
2021/10/04 10:05:30;;;;;;;6.30;3.07;;;17.40;48.10;;;;;;6163336;23;20768;-85
2021/10/04 10:08:01;;;;;;;4.83;1.70;;;17.10;50.60;;;;;;6150543;23;20883;-85
2021/10/04 10:10:50;;;;;;;8.30;3.63;;;17.00;52.10;;;;;;6207954;23;20415;-88
2021/10/04 10:13:23;;;;;;;34.93;14.10;;;17.00;50.40;;;;;;6257303;23;20697;-86
2021/10/04 10:16:10;;;;;;;16.27;5.27;;;17.50;50.90;;;;;;6255962;23;20414;-84
2021/10/04 10:18:49;;;;;;;7.13;2.23;;;18.00;46.50;;;;;;6257223;23;20413;-86
2021/10/04 10:34:16;;;;;;;4.00;1.60;;;18.10;42.50;;;;;;5928663;23;20423;-86
2021/10/04 10:37:02;;;;;;;5.47;1.87;;;17.80;45.00;;;;;;6124163;23;20409;-83
2021/10/04 10:39:50;;;;;;;5.73;1.50;;;17.50;42.20;;;;;;6254953;23;20503;-86
2021/10/04 10:43:14;;;;;;;;;;;;;;;;;;;;;
2021/10/04 10:46:09;;;;;;;4.23;1.30;;;17.30;45.80;;;;;;6236119;23;20421;-84
2021/10/04 10:56:07;;;;;;;3.50;1.47;;;17.50;46.70;;;;;;6161954;23;20811;-86
2021/10/04 11:20:00;;;;;;;5.27;2.10;;;20.30;34.60;;;;;;5976575;24;20438;-86
2021/10/04 11:22:53;;;;;;;6.17;1.37;;;20.40;28.90;;;;;;6051495;23;20420;-89
2021/10/04 11:26:05;;;;;;;5.40;1.60;;;20.60;27.40;;;;;;6077283;23;20581;-87
2021/10/04 11:32:37;;;;;;;;;;;;;;;;;;;;;
2021/10/04 11:38:50;;;;;;;9.40;1.30;;;20.70;18.70;;;;;;6211933;23;20407;-88
2021/10/04 11:44:20;;;;;;;4.77;1.20;;;19.90;19.10;;;;;;6231949;23;20423;-88
2021/10/04 11:47:13;;;;;;;8.50;1.30;;;19.50;19.40;;;;;;6256759;23;20957;-85
2021/10/04 11:50:18;;;;;;;4.33;1.27;;;19.80;20.00;;;;;;6235734;22;20450;-87
2021/10/04 11:52:53;;;;;;;4.60;1.23;;;20.60;20.10;;;;;;6200351;23;20425;-87
2021/10/04 12:05:24;;;;;;;5.60;1.10;;;20.30;19.90;;;;;;6184953;23;20874;-88
2021/10/04 12:08:28;;;;;;;7.17;1.13;;;20.60;18.60;;;;;;6235222;22;20436;-86
2021/10/04 12:17:32;;;;;;;4.80;1.10;;;20.90;18.30;;;;;;6182293;23;20412;-89
2021/10/04 12:20:29;;;;;;;3.77;0.87;;;21.00;15.90;;;;;;6237513;23;20413;-88
2021/10/04 12:30:10;;;;;;;4.97;1.20;;;20.40;17.20;;;;;;6178378;23;20442;-87
2021/10/04 12:33:34;;;;;;;;;;;;;;;;;;;;;
2021/10/04 12:40:22;;;;;;;;;;;;;;;;;;;;;
2021/10/04 12:43:36;;;;;;;5.23;1.23;;;20.10;15.90;;;;;;5961645;24;20417;-86
2021/10/04 12:46:48;;;;;;;;;;;;;;;;;;;;;
2021/10/04 12:53:35;;;;;;;6.90;1.13;;;22.20;12.00;;;;;;6045933;23;20429;-89
2021/10/04 12:56:49;;;;;;;4.70;1.37;;;21.50;11.40;;;;;;6015281;23;20429;-87
2021/10/04 12:59:51;;;;;;;5.33;1.17;;;21.70;11.60;;;;;;6199578;23;20747;-85
2021/10/04 13:08:46;;;;;;;4.73;1.33;;;20.90;12.10;;;;;;6253495;23;20412;-85
2021/10/04 13:12:02;;;;;;;9.17;2.03;;;21.30;13.10;;;;;;6244024;23;20502;-87
2021/10/04 13:14:48;;;;;;;4.67;0.93;;;21.40;13.20;;;;;;6245881;23;20428;-86
2021/10/04 13:31:29;;;;;;;;;;;;;;;;;;;;;
2021/10/04 13:34:23;;;;;;;6.27;1.00;;;19.40;18.70;;;;;;6060561;23;20755;-87
2021/10/04 13:40:19;;;;;;;4.60;1.13;;;19.40;18.40;;;;;;6254741;23;20200;-85
2021/10/04 13:45:53;;;;;;;5.27;1.30;;;19.80;15.70;;;;;;6243598;23;20432;-85
2021/10/04 13:48:35;;;;;;;6.60;1.23;;;19.60;15.10;;;;;;6257736;23;20404;-85
2021/10/04 13:51:25;;;;;;;5.13;1.10;;;19.40;14.30;;;;;;6257326;23;20439;-86
2021/10/04 13:54:00;;;;;;;7.97;1.27;;;19.10;15.60;;;;;;6256822;22;20435;-83
2021/10/04 13:56:41;;;;;;;5.87;1.20;;;19.10;15.70;;;;;;6257375;23;20735;-85
2021/10/04 14:06:13;;;;;;;6.63;1.47;;;20.30;16.10;;;;;;6246510;23;20405;-85
2021/10/04 14:08:55;;;;;;;;;;;;;;;;;;;;;
2021/10/04 14:11:58;;;;;;;4.13;1.07;;;20.20;14.90;;;;;;6154764;23;20434;-85
2021/10/04 14:14:32;;;;;;;5.20;1.00;;;19.40;13.90;;;;;;6036158;23;20420;-87
2021/10/04 14:17:09;;;;;;;5.50;1.00;;;19.00;16.10;;;;;;6037937;23;20421;-86
2021/10/04 14:19:48;;;;;;;6.13;1.10;;;18.70;17.80;;;;;;6096855;23;20417;-87
2021/10/04 14:22:18;;;;;;;5.67;1.70;;;19.10;16.40;;;;;;6163784;23;20545;-88
2021/10/04 14:24:48;;;;;;;11.23;1.30;;;18.90;17.40;;;;;;6251162;22;20860;-85
2021/10/04 14:30:48;;;;;;;5.63;1.20;;;18.30;20.70;;;;;;6241132;22;20414;-85
2021/10/04 14:33:25;;;;;;;5.67;1.27;;;18.20;21.70;;;;;;6222916;23;20417;-84
2021/10/04 14:35:58;;;;;;;4.30;1.13;;;18.10;20.00;;;;;;6246538;23;21017;-86
2021/10/04 14:38:45;;;;;;;4.03;1.23;;;18.00;20.90;;;;;;6257275;23;20412;-87
2021/10/04 14:41:20;;;;;;;6.27;1.20;;;18.00;19.10;;;;;;6246025;23;20401;-86
2021/10/04 14:43:51;;;;;;;5.03;1.20;;;17.90;20.20;;;;;;6255389;23;20416;-84
2021/10/04 14:46:25;;;;;;;4.23;1.07;;;17.90;22.10;;;;;;6256769;23;20489;-87
2021/10/04 14:49:06;;;;;;;7.17;1.30;;;17.80;21.00;;;;;;6257064;23;20801;-85
2021/10/04 14:51:37;;;;;;;6.80;2.10;;;18.10;22.10;;;;;;6246763;23;20435;-86
2021/10/04 14:54:10;;;;;;;5.33;1.83;;;18.20;20.90;;;;;;6246799;23;20407;-88
2021/10/04 14:56:53;;;;;;;;;;;;;;;;;;;;;
2021/10/04 14:59:27;;;;;;;4.60;1.10;;;18.60;18.70;;;;;;6235134;23;20401;-87
2021/10/04 15:02:20;;;;;;;5.43;1.27;;;18.50;18.70;;;;;;6256434;23;20406;-86
2021/10/04 15:08:04;;;;;;;3.80;1.07;;;18.10;17.00;;;;;;6239359;23;20843;-86
2021/10/04 15:10:39;;;;;;;4.57;0.90;;;18.00;18.30;;;;;;6256811;23;20435;-86
2021/10/04 15:16:23;;;;;;;4.80;1.20;;;18.60;17.80;;;;;;6245346;23;20445;-86
2021/10/04 15:21:51;;;;;;;5.63;1.00;;;18.90;18.90;;;;;;6210312;22;20733;-86
2021/10/04 15:24:29;;;;;;;3.70;1.10;;;18.80;18.30;;;;;;6246138;23;20414;-86
2021/10/04 15:27:03;;;;;;;4.47;1.53;;;18.70;18.80;;;;;;6245790;23;20404;-87
2021/10/04 15:29:51;;;;;;;4.47;1.20;;;18.60;18.70;;;;;;6255013;23;20479;-85
2021/10/04 15:36:09;;;;;;;3.50;1.10;;;18.60;18.70;;;;;;6035624;23;20454;-88
2021/10/04 15:42:18;;;;;;;7.57;1.03;;;18.10;20.10;;;;;;6053283;23;20635;-88
2021/10/04 15:45:24;;;;;;;3.40;0.93;;;18.20;22.40;;;;;;6255069;23;20492;-87
2021/10/04 15:48:30;;;;;;;4.93;1.30;;;18.00;21.90;;;;;;6225017;23;20416;-88
2021/10/04 16:12:21;;;;;;;4.43;1.10;;;17.10;22.60;;;;;;5715175;24;20467;-86
2021/10/04 16:14:53;;;;;;;5.90;1.90;;;17.00;24.60;;;;;;6229646;23;20425;-87
2021/10/04 16:23:34;;;;;;;5.60;1.20;;;17.20;22.10;;;;;;6276403;22;20406;-84
2021/10/04 16:26:00;;;;;;;11.20;1.73;;;17.30;22.70;;;;;;6286846;22;20418;-85
2021/10/04 16:28:31;;;;;;;4.57;1.20;;;17.10;23.90;;;;;;6285996;22;20914;-88
2021/10/04 16:31:03;;;;;;;8.63;1.20;;;17.10;22.10;;;;;;6286591;22;20830;-88
2021/10/04 16:33:35;;;;;;;5.87;1.53;;;17.00;23.30;;;;;;6286272;22;20442;-87
2021/10/04 16:36:03;;;;;;;5.93;1.40;;;16.90;24.80;;;;;;6276498;22;20407;-87
2021/10/04 16:38:29;;;;;;;8.33;1.40;;;16.50;26.30;;;;;;6286572;22;20405;-88
2021/10/04 16:41:24;;;;;;;4.20;0.90;;;16.00;27.90;;;;;;6286685;22;20416;-87
2021/10/04 16:44:03;;;;;;;4.33;1.20;;;15.60;29.90;;;;;;6272842;22;20412;-83
2021/10/04 16:46:45;;;;;;;5.37;1.30;;;15.30;31.50;;;;;;6275991;22;20418;-85
2021/10/04 16:49:14;;;;;;;6.87;1.70;;;15.10;33.00;;;;;;6286718;22;20408;-88
2021/10/04 16:51:41;;;;;;;5.23;1.53;;;14.90;33.40;;;;;;6275861;22;20497;-88
2021/10/04 16:54:10;;;;;;;7.03;1.40;;;14.70;35.10;;;;;;6286262;22;20414;-86
2021/10/04 16:56:39;;;;;;;10.70;2.10;;;14.60;35.00;;;;;;6287607;22;20909;-86
2021/10/04 16:59:18;;;;;;;7.43;2.67;;;14.50;33.60;;;;;;6286721;22;20411;-85
2021/10/04 17:01:53;;;;;;;6.07;1.50;;;14.50;33.10;;;;;;6288856;22;20459;-89
2021/10/04 17:05:07;;;;;;;;;;;;;;;;;;;;;
2021/10/04 17:14:15;;;;;;;4.73;0.93;;;13.70;38.50;;;;;;6099411;23;20449;-86
2021/10/04 17:17:26;;;;;;;4.87;1.10;;;13.60;38.50;;;;;;6134417;23;20429;-85
2021/10/04 17:20:09;;;;;;;6.60;1.43;;;13.80;38.60;;;;;;6150489;23;20457;-86
2021/10/04 17:22:54;;;;;;;4.50;1.20;;;13.60;38.40;;;;;;6247650;23;20485;-87
2021/10/04 17:26:00;;;;;;;;;;;;;;;;;;;;;
2021/10/04 17:29:16;;;;;;;7.17;1.73;;;13.40;41.90;;;;;;6239532;23;20414;-88
2021/10/04 17:31:45;;;;;;;4.90;1.50;;;13.00;45.50;;;;;;6246030;23;20454;-88
2021/10/04 17:34:15;;;;;;;9.20;1.47;;;13.10;41.90;;;;;;6257019;23;20439;-86
2021/10/04 17:37:00;;;;;;;7.73;1.30;;;13.20;42.70;;;;;;6257760;23;20415;-86
2021/10/04 17:39:57;;;;;;;;;;;;;;;;;;;;;
2021/10/04 17:42:52;;;;;;;4.77;1.50;;;12.80;46.50;;;;;;6218811;23;20415;-88
2021/10/04 17:48:48;;;;;;;;;;;;;;;;;;;;;
2021/10/04 17:51:33;;;;;;;5.50;1.90;;;12.00;54.40;;;;;;6256104;23;20450;-86
2021/10/04 17:56:51;;;;;;;5.60;1.90;;;11.90;56.80;;;;;;6243354;23;20411;-86
2021/10/04 17:59:19;;;;;;;6.67;1.80;;;11.90;58.70;;;;;;6255947;23;20494;-89
2021/10/04 18:01:55;;;;;;;8.23;1.70;;;11.90;59.40;;;;;;6257478;23;20506;-87
2021/10/04 18:04:45;;;;;;;5.57;2.10;;;11.70;58.90;;;;;;6257141;23;20415;-88
2021/10/04 18:07:24;;;;;;;5.30;2.27;;;11.60;61.40;;;;;;6256928;22;20411;-88
2021/10/04 18:10:17;;;;;;;5.83;1.87;;;11.50;64.50;;;;;;6256904;23;20410;-84
2021/10/04 18:12:55;;;;;;;;;;;;;;;;;;;;;
2021/10/04 18:15:47;;;;;;;4.83;2.40;;;11.40;67.90;;;;;;6247630;23;20407;-84
2021/10/04 18:18:14;;;;;;;3.77;2.10;;;11.20;69.70;;;;;;6257243;23;20439;-84
2021/10/04 18:20:49;;;;;;;6.50;2.97;;;11.20;72.30;;;;;;6257010;22;20436;-85
2021/10/04 18:23:21;;;;;;;9.77;2.80;;;11.10;72.30;;;;;;6246909;23;20403;-86
2021/10/04 18:28:51;;;;;;;4.83;1.93;;;11.00;72.80;;;;;;6236180;23;20417;-86
2021/10/04 18:31:25;;;;;;;4.83;2.30;;;10.90;74.70;;;;;;6246837;23;20429;-86
2021/10/04 18:33:55;;;;;;;4.30;2.23;;;11.00;75.20;;;;;;6257032;23;20435;-84
2021/10/04 18:36:28;;;;;;;3.43;1.90;;;10.80;74.80;;;;;;6257236;23;20411;-84
2021/10/04 18:39:31;;;;;;;5.30;2.13;;;10.80;77.70;;;;;;6246642;23;20411;-84
2021/10/04 18:42:09;;;;;;;5.43;2.67;;;10.70;80.00;;;;;;6235818;23;20503;-86
2021/10/04 18:44:38;;;;;;;5.90;2.53;;;10.60;82.10;;;;;;6255455;23;20461;-86
2021/10/04 18:47:28;;;;;;;7.63;3.40;;;10.50;85.10;;;;;;6246636;23;20407;-87
2021/10/04 18:52:41;;;;;;;4.73;3.10;;;10.30;89.10;;;;;;6241981;23;20820;-87
2021/10/04 18:55:20;;;;;;;6.20;3.63;;;10.10;91.30;;;;;;6256626;23;20408;-85
2021/10/04 18:57:57;;;;;;;6.77;3.63;;;10.10;93.30;;;;;;6256725;23;20403;-89
2021/10/04 19:01:01;;;;;;;6.80;3.80;;;10.00;93.80;;;;;;6255570;23;20407;-86
2021/10/04 19:03:48;;;;;;;4.70;3.90;;;10.10;94.00;;;;;;6238700;23;20887;-86
2021/10/04 19:06:19;;;;;;;8.83;3.77;;;10.00;94.70;;;;;;6246674;23;20414;-85
2021/10/04 19:08:48;;;;;;;6.30;3.47;;;10.10;95.00;;;;;;6256661;23;20410;-86
2021/10/04 19:11:28;;;;;;;9.23;3.90;;;9.90;96.30;;;;;;6246704;23;20954;-84
2021/10/04 19:14:25;;;;;;;3.93;3.53;;;9.80;97.40;;;;;;6245360;23;20727;-87
2021/10/04 19:16:59;;;;;;;6.63;4.50;;;9.80;99.60;;;;;;6256675;23;20407;-86
2021/10/04 19:19:26;;;;;;;5.20;4.40;;;9.80;99.70;;;;;;6255930;22;20407;-86
2021/10/04 19:25:10;;;;;;;;;;;;;;;;;;;;;
2021/10/04 19:27:39;;;;;;;6.20;4.70;;;9.80;99.90;;;;;;6275998;22;20406;-84
2021/10/04 19:30:14;;;;;;;6.17;4.67;;;9.60;99.90;;;;;;6285724;22;20489;-87
2021/10/04 19:32:44;;;;;;;6.90;4.93;;;9.50;99.90;;;;;;6276527;22;20445;-86
2021/10/04 19:35:14;;;;;;;7.43;5.17;;;9.40;99.90;;;;;;6286853;22;20406;-87
2021/10/04 19:37:42;;;;;;;6.30;5.70;;;9.30;99.90;;;;;;6286940;22;20410;-84
2021/10/04 19:40:19;;;;;;;8.77;7.73;;;9.20;99.90;;;;;;6287081;22;20413;-83
2021/10/04 19:42:51;;;;;;;10.50;9.80;;;9.10;99.90;;;;;;6276929;22;20406;-84
2021/10/04 19:45:21;;;;;;;12.17;11.30;;;9.10;99.90;;;;;;6285878;22;20422;-85
2021/10/04 19:47:50;;;;;;;14.20;13.40;;;9.00;99.90;;;;;;6287184;22;20403;-87
2021/10/04 19:50:18;;;;;;;14.77;13.63;;;8.90;99.90;;;;;;6276641;22;20399;-85
2021/10/04 19:52:46;;;;;;;14.60;13.67;;;9.10;99.90;;;;;;6276931;22;20752;-90
2021/10/04 19:55:17;;;;;;;16.10;15.03;;;9.00;99.90;;;;;;6286924;22;20417;-86
2021/10/04 19:57:55;;;;;;;14.93;13.83;;;9.10;99.90;;;;;;6276828;22;20486;-85
2021/10/04 20:00:26;;;;;;;12.27;11.47;;;9.30;99.90;;;;;;6285921;22;20754;-83
2021/10/04 20:02:59;;;;;;;14.43;13.40;;;9.10;99.90;;;;;;6286827;22;20403;-87
2021/10/04 20:05:28;;;;;;;14.33;13.53;;;9.00;99.90;;;;;;6287164;22;20410;-88
2021/10/04 20:07:56;;;;;;;16.00;15.10;;;8.90;99.90;;;;;;6287087;22;20480;-84
2021/10/04 20:10:26;;;;;;;20.93;19.83;;;8.80;99.90;;;;;;6286772;22;20406;-87
2021/10/04 20:12:53;;;;;;;23.63;22.53;;;8.80;99.90;;;;;;6286433;22;20442;-89
2021/10/04 20:15:20;;;;;;;31.40;29.67;;;8.80;99.90;;;;;;6285759;22;20410;-85
2021/10/04 20:18:10;;;;;;;26.10;24.30;;;8.80;99.90;;;;;;6286934;22;20437;-85
2021/10/04 20:20:45;;;;;;;33.03;31.57;;;8.70;99.90;;;;;;6276267;22;20434;-85
2021/10/04 20:23:21;;;;;;;28.73;27.43;;;8.70;99.90;;;;;;6286501;22;20409;-87
2021/10/04 20:25:49;;;;;;;33.27;31.60;;;8.70;99.90;;;;;;6286721;22;20401;-87
2021/10/04 20:28:28;;;;;;;33.77;31.70;;;8.70;99.90;;;;;;6286376;22;20943;-86
2021/10/04 20:30:58;;;;;;;29.83;27.50;;;8.60;99.90;;;;;;6275153;22;20402;-87
2021/10/04 20:33:51;;;;;;;;;;;;;;;;;;;;;
2021/10/04 20:36:18;;;;;;;26.40;25.10;;;8.60;99.90;;;;;;6281984;22;20745;-89
2021/10/04 20:38:57;;;;;;;29.27;27.87;;;8.70;99.90;;;;;;6286935;22;20460;-88
2021/10/04 20:41:29;;;;;;;28.77;27.30;;;8.90;99.90;;;;;;6286708;22;20928;-86
2021/10/04 20:44:01;;;;;;;29.63;28.20;;;8.80;99.90;;;;;;6273858;22;20426;-86
2021/10/04 20:47:07;;;;;;;;;;;;;;;;;;;;;
2021/10/04 20:49:35;;;;;;;28.50;27.10;;;8.80;99.90;;;;;;6270870;22;20410;-86
2021/10/04 20:52:04;;;;;;;28.47;27.17;;;8.90;99.90;;;;;;6276480;22;20426;-88
2021/10/04 20:54:33;;;;;;;27.63;26.43;;;8.80;99.90;;;;;;6286750;22;20437;-84
2021/10/04 20:57:00;;;;;;;27.57;26.47;;;8.80;99.90;;;;;;6286458;22;20402;-85
2021/10/04 20:59:30;;;;;;;30.83;29.53;;;8.80;99.90;;;;;;6285225;22;20437;-86
2021/10/04 21:01:57;;;;;;;31.80;30.20;;;8.90;99.90;;;;;;6286317;22;20414;-89
2021/10/04 21:04:24;;;;;;;35.37;33.97;;;8.80;99.90;;;;;;6286318;22;20410;-90
2021/10/04 21:06:54;;;;;;;40.33;37.60;;;8.70;99.90;;;;;;6286422;22;20407;-88
2021/10/04 21:09:23;;;;;;;33.40;32.00;;;8.80;99.90;;;;;;6286494;22;20464;-89
2021/10/04 21:11:52;;;;;;;33.70;32.10;;;8.90;99.90;;;;;;6286763;22;20402;-87
2021/10/04 21:14:19;;;;;;;31.77;30.07;;;9.00;99.90;;;;;;6284992;22;20464;-86
2021/10/04 21:16:50;;;;;;;36.77;35.27;;;8.90;99.90;;;;;;6255575;23;20390;-89
2021/10/04 21:19:17;;;;;;;35.43;33.83;;;9.00;99.90;;;;;;6255967;23;20415;-88
2021/10/04 21:21:45;;;;;;;36.30;34.80;;;9.00;99.90;;;;;;6255567;23;20439;-89
2021/10/04 21:24:14;;;;;;;43.00;41.00;;;8.90;99.90;;;;;;6255665;23;20432;-85
2021/10/04 21:26:41;;;;;;;37.83;36.23;;;8.90;99.90;;;;;;6245872;23;20869;-85
2021/10/04 21:29:08;;;;;;;37.47;35.87;;;8.90;99.90;;;;;;6244566;23;20902;-89
2021/10/04 21:31:35;;;;;;;35.30;33.80;;;9.00;99.90;;;;;;6245249;23;20454;-88
2021/10/04 21:34:02;;;;;;;41.47;39.77;;;8.90;99.90;;;;;;6255840;23;20463;-88
2021/10/04 21:36:29;;;;;;;54.97;52.67;;;8.90;99.90;;;;;;6245735;23;20399;-85
2021/10/04 21:38:56;;;;;;;46.10;44.30;;;8.90;99.90;;;;;;6255848;23;20879;-85
2021/10/04 21:41:26;;;;;;;60.73;57.63;;;8.90;99.90;;;;;;6255511;23;20403;-87
2021/10/04 21:43:53;;;;;;;62.70;60.13;;;9.00;99.90;;;;;;6256264;23;20780;-88
2021/10/04 21:46:20;;;;;;;78.03;75.13;;;9.00;99.90;;;;;;6247610;23;20439;-86
2021/10/04 21:48:47;;;;;;;69.43;66.53;;;9.00;99.90;;;;;;6247080;23;20461;-88
2021/10/04 21:51:14;;;;;;;87.37;83.70;;;8.90;99.90;;;;;;6247583;23;20404;-86
2021/10/04 21:53:42;;;;;;;80.00;77.00;;;8.90;99.90;;;;;;6257220;23;20442;-89
2021/10/04 21:56:10;;;;;;;102.80;99.00;;;8.90;99.90;;;;;;6257581;23;20415;-87
2021/10/04 21:58:40;;;;;;;108.93;104.60;;;8.90;99.90;;;;;;6246254;23;20403;-85
2021/10/04 22:01:13;;;;;;;129.47;124.87;;;9.00;99.90;;;;;;6256325;23;20418;-91
2021/10/04 22:12:05;;;;;;;122.23;117.67;;;9.00;99.90;;;;;;6257174;23;20399;-89
2021/10/04 22:14:36;;;;;;;130.30;125.23;;;8.90;99.90;;;;;;6255861;23;20418;-87
2021/10/04 22:17:04;;;;;;;149.73;144.13;;;8.90;99.90;;;;;;6257392;23;20414;-90
2021/10/04 22:19:33;;;;;;;168.27;162.17;;;8.90;99.90;;;;;;6256627;23;20971;-84
2021/10/04 22:22:02;;;;;;;154.80;149.30;;;9.00;99.90;;;;;;6257066;23;20404;-86
2021/10/04 22:24:29;;;;;;;161.37;155.47;;;9.00;99.90;;;;;;6247105;23;20407;-86
2021/10/04 22:26:56;;;;;;;151.60;145.93;;;9.00;99.90;;;;;;6256787;23;20462;-86
2021/10/04 22:29:23;;;;;;;155.30;149.10;;;9.10;99.90;;;;;;6245369;23;20404;-89
2021/10/04 22:31:52;;;;;;;148.27;142.57;;;9.00;99.90;;;;;;6256773;23;20521;-83
2021/10/04 22:34:22;;;;;;;148.93;143.43;;;9.10;99.90;;;;;;6257203;23;20438;-87
2021/10/04 22:36:51;;;;;;;162.23;156.30;;;9.10;99.90;;;;;;6246912;23;20399;-85
2021/10/04 22:39:18;;;;;;;141.67;136.63;;;9.20;99.90;;;;;;6256799;23;20419;-84
2021/10/04 22:42:02;;;;;;;119.30;115.10;;;9.40;99.90;;;;;;6246907;23;20404;-88
2021/10/04 22:44:29;;;;;;;115.77;111.20;;;9.40;99.90;;;;;;6243756;23;21030;-89
2021/10/04 22:47:00;;;;;;;109.30;105.30;;;9.40;99.90;;;;;;6246839;23;20727;-90
2021/10/04 22:49:27;;;;;;;114.27;110.13;;;9.30;99.90;;;;;;6246780;23;20755;-86
2021/10/04 22:51:54;;;;;;;98.27;94.23;;;9.30;99.90;;;;;;6257017;23;20406;-88
2021/10/04 22:54:25;;;;;;;104.87;101.00;;;9.30;99.90;;;;;;6256801;23;20462;-88
2021/10/04 22:56:52;;;;;;;108.33;103.87;;;9.20;99.90;;;;;;6257088;23;20416;-88
2021/10/04 22:59:19;;;;;;;114.20;109.90;;;9.20;99.90;;;;;;6255255;23;20411;-86
2021/10/04 23:01:46;;;;;;;123.47;118.87;;;9.30;99.90;;;;;;6246609;23;20767;-88
2021/10/04 23:04:17;;;;;;;139.37;134.27;;;9.00;99.90;;;;;;6257071;23;20792;-83
2021/10/04 23:06:47;;;;;;;146.17;140.83;;;8.90;99.90;;;;;;6246881;23;20894;-86
2021/10/04 23:09:14;;;;;;;160.47;154.37;;;9.00;99.90;;;;;;6256806;23;20415;-84
2021/10/04 23:11:41;;;;;;;157.00;151.20;;;9.00;99.90;;;;;;6246719;23;20399;-84
2021/10/04 23:14:08;;;;;;;165.60;159.60;;;9.10;99.90;;;;;;6255128;23;20463;-82
2021/10/04 23:16:36;;;;;;;192.03;184.60;;;9.00;99.90;;;;;;6241472;23;20407;-88
2021/10/04 23:19:03;;;;;;;190.60;183.47;;;9.10;99.90;;;;;;6256487;23;20739;-86
2021/10/04 23:21:34;;;;;;;161.83;155.57;;;9.20;99.90;;;;;;6256195;23;20976;-86
2021/10/04 23:24:05;;;;;;;152.50;146.70;;;9.30;99.90;;;;;;6246558;23;20494;-88
2021/10/04 23:26:33;;;;;;;150.80;145.13;;;9.20;99.90;;;;;;6256425;23;20403;-88
2021/10/04 23:29:00;;;;;;;159.03;153.13;;;9.10;99.90;;;;;;6244791;23;20395;-90
2021/10/04 23:31:27;;;;;;;152.60;146.27;;;9.00;99.90;;;;;;6256544;23;20461;-90
2021/10/04 23:33:53;;;;;;;183.03;176.23;;;8.90;99.90;;;;;;6256049;23;20439;-89
2021/10/04 23:36:20;;;;;;;193.50;186.30;;;8.80;99.90;;;;;;6256670;23;20435;-89
2021/10/04 23:38:49;;;;;;;225.73;217.23;;;8.80;99.90;;;;;;6256330;23;20404;-89
2021/10/04 23:41:16;;;;;;;228.00;219.50;;;8.80;99.90;;;;;;6246361;23;20427;-89
2021/10/04 23:43:43;;;;;;;234.50;225.77;;;8.70;99.90;;;;;;6255326;23;20939;-90
2021/10/04 23:46:10;;;;;;;292.87;281.83;;;8.60;99.90;;;;;;6245773;23;20879;-86
2021/10/04 23:48:37;;;;;;;313.67;301.57;;;8.50;99.90;;;;;;6256272;23;20462;-89
2021/10/04 23:51:05;;;;;;;347.23;333.93;;;8.60;99.90;;;;;;6255534;23;20443;-87
2021/10/04 23:53:34;;;;;;;380.33;365.37;;;8.70;99.90;;;;;;6256040;23;20510;-89
2021/10/04 23:56:02;;;;;;;362.30;348.17;;;8.60;99.90;;;;;;6246118;23;20404;-89
2021/10/04 23:58:29;;;;;;;392.70;377.67;;;8.50;99.90;;;;;;6256276;23;20423;-89
